sensor_id;sensor_type;location;lat;lon;timestamp;temperature;humidity
60727;DHT22;46577;49.004;12.120;2022-12-11T00:01:54;0.70;99.90
60727;DHT22;46577;49.004;12.120;2022-12-11T00:04:20;0.70;99.90
60727;DHT22;46577;49.004;12.120;2022-12-11T00:06:46;0.70;99.90
60727;DHT22;46577;49.004;12.120;2022-12-11T00:09:17;0.70;99.90
60727;DHT22;46577;49.004;12.120;2022-12-11T00:11:43;0.60;99.90
60727;DHT22;46577;49.004;12.120;2022-12-11T00:14:09;0.70;99.90
60727;DHT22;46577;49.004;12.120;2022-12-11T00:16:35;0.70;99.90
60727;DHT22;46577;49.004;12.120;2022-12-11T00:19:01;0.60;99.90
60727;DHT22;46577;49.004;12.120;2022-12-11T00:21:26;0.60;99.90
60727;DHT22;46577;49.004;12.120;2022-12-11T00:23:52;0.60;99.90
60727;DHT22;46577;49.004;12.120;2022-12-11T00:26:18;0.60;99.90
60727;DHT22;46577;49.004;12.120;2022-12-11T00:28:44;0.60;99.90
60727;DHT22;46577;49.004;12.120;2022-12-11T00:31:14;0.60;99.90
60727;DHT22;46577;49.004;12.120;2022-12-11T00:33:40;0.60;99.90
60727;DHT22;46577;49.004;12.120;2022-12-11T00:36:21;0.60;99.90
60727;DHT22;46577;49.004;12.120;2022-12-11T00:38:47;0.50;99.90
60727;DHT22;46577;49.004;12.120;2022-12-11T00:41:14;0.40;99.90
60727;DHT22;46577;49.004;12.120;2022-12-11T00:43:40;0.40;99.90
60727;DHT22;46577;49.004;12.120;2022-12-11T00:46:06;0.40;99.90
60727;DHT22;46577;49.004;12.120;2022-12-11T00:48:32;0.40;99.90
60727;DHT22;46577;49.004;12.120;2022-12-11T00:50:58;0.50;99.90
60727;DHT22;46577;49.004;12.120;2022-12-11T00:53:23;0.50;99.90
60727;DHT22;46577;49.004;12.120;2022-12-11T00:55:49;0.50;99.90
60727;DHT22;46577;49.004;12.120;2022-12-11T00:58:15;0.60;99.90
60727;DHT22;46577;49.004;12.120;2022-12-11T01:00:41;0.60;99.90
60727;DHT22;46577;49.004;12.120;2022-12-11T01:03:08;0.70;99.90
60727;DHT22;46577;49.004;12.120;2022-12-11T01:05:34;0.70;99.90
60727;DHT22;46577;49.004;12.120;2022-12-11T01:07:59;0.60;99.90
60727;DHT22;46577;49.004;12.120;2022-12-11T01:10:25;0.60;99.90
60727;DHT22;46577;49.004;12.120;2022-12-11T01:12:56;0.70;99.90
60727;DHT22;46577;49.004;12.120;2022-12-11T01:15:24;0.70;99.90
60727;DHT22;46577;49.004;12.120;2022-12-11T01:17:50;0.70;99.90
60727;DHT22;46577;49.004;12.120;2022-12-11T01:20:17;0.70;99.90
60727;DHT22;46577;49.004;12.120;2022-12-11T01:22:43;0.70;99.90
60727;DHT22;46577;49.004;12.120;2022-12-11T01:25:09;0.80;99.90
60727;DHT22;46577;49.004;12.120;2022-12-11T01:27:36;0.80;99.90
60727;DHT22;46577;49.004;12.120;2022-12-11T01:30:03;0.80;99.90
60727;DHT22;46577;49.004;12.120;2022-12-11T01:32:30;0.80;99.90
60727;DHT22;46577;49.004;12.120;2022-12-11T01:34:55;0.80;99.90
60727;DHT22;46577;49.004;12.120;2022-12-11T01:37:21;0.80;99.90
60727;DHT22;46577;49.004;12.120;2022-12-11T01:39:46;0.80;99.90
60727;DHT22;46577;49.004;12.120;2022-12-11T01:42:17;0.80;99.90
60727;DHT22;46577;49.004;12.120;2022-12-11T01:47:09;0.80;99.90
60727;DHT22;46577;49.004;12.120;2022-12-11T01:49:36;0.80;99.90
60727;DHT22;46577;49.004;12.120;2022-12-11T01:52:15;0.70;99.90
60727;DHT22;46577;49.004;12.120;2022-12-11T01:54:43;0.70;99.90
60727;DHT22;46577;49.004;12.120;2022-12-11T01:57:10;0.60;99.90
60727;DHT22;46577;49.004;12.120;2022-12-11T01:59:39;0.70;99.90
60727;DHT22;46577;49.004;12.120;2022-12-11T02:02:11;0.70;99.90
60727;DHT22;46577;49.004;12.120;2022-12-11T02:04:41;0.60;99.90
60727;DHT22;46577;49.004;12.120;2022-12-11T02:07:08;0.50;99.90
60727;DHT22;46577;49.004;12.120;2022-12-11T02:09:36;0.40;99.90
60727;DHT22;46577;49.004;12.120;2022-12-11T02:15:46;0.40;99.90
60727;DHT22;46577;49.004;12.120;2022-12-11T02:21:09;0.20;99.90
60727;DHT22;46577;49.004;12.120;2022-12-11T02:24:05;0.20;99.90
60727;DHT22;46577;49.004;12.120;2022-12-11T02:29:32;0.30;99.90
60727;DHT22;46577;49.004;12.120;2022-12-11T02:32:08;0.20;99.90
60727;DHT22;46577;49.004;12.120;2022-12-11T02:34:58;0.20;99.90
60727;DHT22;46577;49.004;12.120;2022-12-11T02:37:26;0.20;99.90
60727;DHT22;46577;49.004;12.120;2022-12-11T02:39:54;0.20;99.90
60727;DHT22;46577;49.004;12.120;2022-12-11T02:42:22;0.20;99.90
60727;DHT22;46577;49.004;12.120;2022-12-11T02:44:50;0.20;99.90
60727;DHT22;46577;49.004;12.120;2022-12-11T02:47:17;0.10;99.90
60727;DHT22;46577;49.004;12.120;2022-12-11T02:49:47;0.00;99.90
60727;DHT22;46577;49.004;12.120;2022-12-11T02:52:15;0.00;99.90
60727;DHT22;46577;49.004;12.120;2022-12-11T02:54:43;-0.10;99.90
60727;DHT22;46577;49.004;12.120;2022-12-11T02:57:21;-0.10;99.90
60727;DHT22;46577;49.004;12.120;2022-12-11T02:59:48;-0.20;99.90
60727;DHT22;46577;49.004;12.120;2022-12-11T03:02:14;-0.10;99.90
60727;DHT22;46577;49.004;12.120;2022-12-11T03:04:41;-0.30;99.90
60727;DHT22;46577;49.004;12.120;2022-12-11T03:07:14;-0.30;99.90
60727;DHT22;46577;49.004;12.120;2022-12-11T03:09:45;-0.50;99.90
60727;DHT22;46577;49.004;12.120;2022-12-11T03:12:16;-0.50;99.90
60727;DHT22;46577;49.004;12.120;2022-12-11T03:14:43;-0.50;99.90
60727;DHT22;46577;49.004;12.120;2022-12-11T03:17:21;-0.60;99.90
60727;DHT22;46577;49.004;12.120;2022-12-11T03:22:39;-0.70;99.90
60727;DHT22;46577;49.004;12.120;2022-12-11T03:25:10;-0.80;99.90
60727;DHT22;46577;49.004;12.120;2022-12-11T03:30:15;-0.90;99.90
60727;DHT22;46577;49.004;12.120;2022-12-11T03:35:34;-1.00;99.90
60727;DHT22;46577;49.004;12.120;2022-12-11T03:38:07;-1.10;99.90
60727;DHT22;46577;49.004;12.120;2022-12-11T03:40:35;-1.10;99.90
60727;DHT22;46577;49.004;12.120;2022-12-11T03:43:04;-1.20;99.90
60727;DHT22;46577;49.004;12.120;2022-12-11T03:45:31;-1.20;99.90
60727;DHT22;46577;49.004;12.120;2022-12-11T03:47:58;-0.50;99.90
60727;DHT22;46577;49.004;12.120;2022-12-11T03:50:28;-1.20;99.90
60727;DHT22;46577;49.004;12.120;2022-12-11T03:52:56;-1.30;99.90
60727;DHT22;46577;49.004;12.120;2022-12-11T03:55:22;-1.30;99.90
60727;DHT22;46577;49.004;12.120;2022-12-11T03:57:48;-1.30;99.90
60727;DHT22;46577;49.004;12.120;2022-12-11T04:00:17;-1.30;99.90
60727;DHT22;46577;49.004;12.120;2022-12-11T04:02:43;-1.40;99.90
60727;DHT22;46577;49.004;12.120;2022-12-11T04:05:10;-1.40;99.90
60727;DHT22;46577;49.004;12.120;2022-12-11T04:07:36;-1.40;99.90
60727;DHT22;46577;49.004;12.120;2022-12-11T04:10:03;-1.50;99.90
60727;DHT22;46577;49.004;12.120;2022-12-11T04:12:29;-1.50;99.90
60727;DHT22;46577;49.004;12.120;2022-12-11T04:14:54;-1.50;99.90
60727;DHT22;46577;49.004;12.120;2022-12-11T04:17:30;-1.60;99.90
60727;DHT22;46577;49.004;12.120;2022-12-11T04:20:15;-1.60;99.90
60727;DHT22;46577;49.004;12.120;2022-12-11T04:23:02;-1.60;99.90
60727;DHT22;46577;49.004;12.120;2022-12-11T04:25:46;-1.60;99.90
60727;DHT22;46577;49.004;12.120;2022-12-11T04:28:12;-1.60;99.90
60727;DHT22;46577;49.004;12.120;2022-12-11T04:30:37;-1.60;99.90
60727;DHT22;46577;49.004;12.120;2022-12-11T04:33:03;-1.70;99.90
60727;DHT22;46577;49.004;12.120;2022-12-11T04:35:29;-1.70;99.90
60727;DHT22;46577;49.004;12.120;2022-12-11T04:37:55;-1.70;99.90
60727;DHT22;46577;49.004;12.120;2022-12-11T04:40:20;-1.70;99.90
60727;DHT22;46577;49.004;12.120;2022-12-11T04:42:46;-1.70;99.90
60727;DHT22;46577;49.004;12.120;2022-12-11T04:45:12;-1.70;99.90
60727;DHT22;46577;49.004;12.120;2022-12-11T04:47:39;-1.60;99.90
60727;DHT22;46577;49.004;12.120;2022-12-11T04:50:07;-1.80;99.90
60727;DHT22;46577;49.004;12.120;2022-12-11T04:52:32;-1.80;99.90
60727;DHT22;46577;49.004;12.120;2022-12-11T04:54:58;-1.70;99.90
60727;DHT22;46577;49.004;12.120;2022-12-11T04:57:24;-1.60;99.90
60727;DHT22;46577;49.004;12.120;2022-12-11T04:59:49;-1.50;99.90
60727;DHT22;46577;49.004;12.120;2022-12-11T05:02:15;-1.50;99.90
60727;DHT22;46577;49.004;12.120;2022-12-11T05:04:41;-1.40;99.90
60727;DHT22;46577;49.004;12.120;2022-12-11T05:07:07;-1.40;99.90
60727;DHT22;46577;49.004;12.120;2022-12-11T05:09:34;-1.40;99.90
60727;DHT22;46577;49.004;12.120;2022-12-11T05:12:00;-1.40;99.90
60727;DHT22;46577;49.004;12.120;2022-12-11T05:14:26;-1.50;99.90
60727;DHT22;46577;49.004;12.120;2022-12-11T05:16:54;-1.50;99.90
60727;DHT22;46577;49.004;12.120;2022-12-11T05:19:20;-1.50;99.90
60727;DHT22;46577;49.004;12.120;2022-12-11T05:21:45;-1.50;99.90
60727;DHT22;46577;49.004;12.120;2022-12-11T05:24:11;-1.50;99.90
60727;DHT22;46577;49.004;12.120;2022-12-11T05:26:37;-1.50;99.90
60727;DHT22;46577;49.004;12.120;2022-12-11T05:29:02;-1.60;99.90
60727;DHT22;46577;49.004;12.120;2022-12-11T05:31:28;-1.70;99.90
60727;DHT22;46577;49.004;12.120;2022-12-11T05:33:53;-1.70;99.90
60727;DHT22;46577;49.004;12.120;2022-12-11T05:36:25;-1.70;99.90
60727;DHT22;46577;49.004;12.120;2022-12-11T05:38:51;-1.70;99.90
60727;DHT22;46577;49.004;12.120;2022-12-11T05:41:19;-1.70;99.90
60727;DHT22;46577;49.004;12.120;2022-12-11T05:43:45;-1.70;99.90
60727;DHT22;46577;49.004;12.120;2022-12-11T05:46:13;-1.70;99.90
60727;DHT22;46577;49.004;12.120;2022-12-11T05:48:40;-1.80;99.90
60727;DHT22;46577;49.004;12.120;2022-12-11T05:51:06;-1.90;99.90
60727;DHT22;46577;49.004;12.120;2022-12-11T05:53:34;-1.90;99.90
60727;DHT22;46577;49.004;12.120;2022-12-11T05:56:04;-1.90;99.90
60727;DHT22;46577;49.004;12.120;2022-12-11T05:58:31;-1.90;99.90
60727;DHT22;46577;49.004;12.120;2022-12-11T06:00:57;-1.90;99.90
60727;DHT22;46577;49.004;12.120;2022-12-11T06:03:23;-2.00;99.90
60727;DHT22;46577;49.004;12.120;2022-12-11T06:05:48;-2.00;99.90
60727;DHT22;46577;49.004;12.120;2022-12-11T06:08:14;-2.10;99.90
60727;DHT22;46577;49.004;12.120;2022-12-11T06:10:47;-2.10;99.90
60727;DHT22;46577;49.004;12.120;2022-12-11T06:13:14;-2.00;99.90
60727;DHT22;46577;49.004;12.120;2022-12-11T06:15:40;-2.00;99.90
60727;DHT22;46577;49.004;12.120;2022-12-11T06:18:05;-2.10;99.90
60727;DHT22;46577;49.004;12.120;2022-12-11T06:20:31;-2.10;99.90
60727;DHT22;46577;49.004;12.120;2022-12-11T06:22:58;-2.10;99.90
60727;DHT22;46577;49.004;12.120;2022-12-11T06:25:23;-0.70;99.90
60727;DHT22;46577;49.004;12.120;2022-12-11T06:27:49;-2.10;99.90
60727;DHT22;46577;49.004;12.120;2022-12-11T06:30:15;-2.20;99.90
60727;DHT22;46577;49.004;12.120;2022-12-11T06:32:41;-2.30;99.90
60727;DHT22;46577;49.004;12.120;2022-12-11T06:35:07;-2.20;99.90
60727;DHT22;46577;49.004;12.120;2022-12-11T06:37:34;-2.20;99.90
60727;DHT22;46577;49.004;12.120;2022-12-11T06:40:00;-2.20;99.90
60727;DHT22;46577;49.004;12.120;2022-12-11T06:42:28;-2.20;99.90
60727;DHT22;46577;49.004;12.120;2022-12-11T06:44:54;-2.30;99.90
60727;DHT22;46577;49.004;12.120;2022-12-11T06:47:22;-2.30;99.90
60727;DHT22;46577;49.004;12.120;2022-12-11T06:49:47;-2.30;99.90
60727;DHT22;46577;49.004;12.120;2022-12-11T06:52:13;-2.30;99.90
60727;DHT22;46577;49.004;12.120;2022-12-11T06:54:38;-2.20;99.90
60727;DHT22;46577;49.004;12.120;2022-12-11T06:57:04;-2.30;99.90
60727;DHT22;46577;49.004;12.120;2022-12-11T06:59:29;-2.30;99.90
60727;DHT22;46577;49.004;12.120;2022-12-11T07:01:55;-2.30;99.90
60727;DHT22;46577;49.004;12.120;2022-12-11T07:04:21;-2.20;99.90
60727;DHT22;46577;49.004;12.120;2022-12-11T07:06:49;-2.20;99.90
60727;DHT22;46577;49.004;12.120;2022-12-11T07:09:15;-2.30;99.90
60727;DHT22;46577;49.004;12.120;2022-12-11T07:11:40;-2.20;99.90
60727;DHT22;46577;49.004;12.120;2022-12-11T07:14:06;-2.20;99.90
60727;DHT22;46577;49.004;12.120;2022-12-11T07:16:31;-2.20;99.90
60727;DHT22;46577;49.004;12.120;2022-12-11T07:18:57;-2.10;99.90
60727;DHT22;46577;49.004;12.120;2022-12-11T07:21:23;-2.10;99.90
60727;DHT22;46577;49.004;12.120;2022-12-11T07:23:49;-2.10;99.90
60727;DHT22;46577;49.004;12.120;2022-12-11T07:26:17;-2.10;99.90
60727;DHT22;46577;49.004;12.120;2022-12-11T07:28:43;-2.00;99.90
60727;DHT22;46577;49.004;12.120;2022-12-11T07:31:12;-2.00;99.90
60727;DHT22;46577;49.004;12.120;2022-12-11T07:33:38;-1.90;99.90
60727;DHT22;46577;49.004;12.120;2022-12-11T07:36:07;-1.80;99.90
60727;DHT22;46577;49.004;12.120;2022-12-11T07:38:33;-1.70;99.90
60727;DHT22;46577;49.004;12.120;2022-12-11T07:41:00;-1.70;99.90
60727;DHT22;46577;49.004;12.120;2022-12-11T07:43:26;-1.60;99.90
60727;DHT22;46577;49.004;12.120;2022-12-11T07:45:51;-1.60;99.90
60727;DHT22;46577;49.004;12.120;2022-12-11T07:48:17;-1.50;99.90
60727;DHT22;46577;49.004;12.120;2022-12-11T07:50:43;-1.40;99.90
60727;DHT22;46577;49.004;12.120;2022-12-11T07:53:08;-1.30;99.90
60727;DHT22;46577;49.004;12.120;2022-12-11T07:55:34;-1.20;99.90
60727;DHT22;46577;49.004;12.120;2022-12-11T07:57:59;-1.20;99.90
60727;DHT22;46577;49.004;12.120;2022-12-11T08:00:25;-1.10;99.90
60727;DHT22;46577;49.004;12.120;2022-12-11T08:02:50;-0.80;99.90
60727;DHT22;46577;49.004;12.120;2022-12-11T08:05:16;-0.90;99.90
60727;DHT22;46577;49.004;12.120;2022-12-11T08:07:42;-0.80;99.90
60727;DHT22;46577;49.004;12.120;2022-12-11T08:10:08;-0.70;99.90
60727;DHT22;46577;49.004;12.120;2022-12-11T08:12:33;-0.60;99.90
60727;DHT22;46577;49.004;12.120;2022-12-11T08:14:59;-0.40;99.90
60727;DHT22;46577;49.004;12.120;2022-12-11T08:17:25;-0.30;99.90
60727;DHT22;46577;49.004;12.120;2022-12-11T08:19:50;-0.30;99.90
60727;DHT22;46577;49.004;12.120;2022-12-11T08:22:16;-0.20;99.90
60727;DHT22;46577;49.004;12.120;2022-12-11T08:24:41;-0.10;99.90
60727;DHT22;46577;49.004;12.120;2022-12-11T08:27:07;0.00;99.90
60727;DHT22;46577;49.004;12.120;2022-12-11T08:29:33;0.10;99.90
60727;DHT22;46577;49.004;12.120;2022-12-11T08:31:58;0.00;99.90
60727;DHT22;46577;49.004;12.120;2022-12-11T08:34:24;0.10;99.90
60727;DHT22;46577;49.004;12.120;2022-12-11T08:36:49;0.10;99.90
60727;DHT22;46577;49.004;12.120;2022-12-11T08:39:15;0.00;99.90
60727;DHT22;46577;49.004;12.120;2022-12-11T08:41:41;0.20;99.90
60727;DHT22;46577;49.004;12.120;2022-12-11T08:44:10;0.40;99.90
60727;DHT22;46577;49.004;12.120;2022-12-11T08:46:36;0.60;99.90
60727;DHT22;46577;49.004;12.120;2022-12-11T08:49:02;0.80;99.90
60727;DHT22;46577;49.004;12.120;2022-12-11T08:51:29;1.00;99.90
60727;DHT22;46577;49.004;12.120;2022-12-11T08:53:56;1.30;99.90
60727;DHT22;46577;49.004;12.120;2022-12-11T08:56:25;1.70;99.90
60727;DHT22;46577;49.004;12.120;2022-12-11T08:58:52;2.00;99.90
60727;DHT22;46577;49.004;12.120;2022-12-11T09:01:23;2.30;99.90
60727;DHT22;46577;49.004;12.120;2022-12-11T09:03:50;2.40;99.90
60727;DHT22;46577;49.004;12.120;2022-12-11T09:06:18;2.70;99.90
60727;DHT22;46577;49.004;12.120;2022-12-11T09:08:46;2.70;99.90
60727;DHT22;46577;49.004;12.120;2022-12-11T09:11:15;2.80;99.90
60727;DHT22;46577;49.004;12.120;2022-12-11T09:13:41;2.90;99.90
60727;DHT22;46577;49.004;12.120;2022-12-11T09:16:09;3.30;99.90
60727;DHT22;46577;49.004;12.120;2022-12-11T09:18:36;4.00;99.90
60727;DHT22;46577;49.004;12.120;2022-12-11T09:21:05;4.90;98.20
60727;DHT22;46577;49.004;12.120;2022-12-11T09:23:31;5.50;96.20
60727;DHT22;46577;49.004;12.120;2022-12-11T09:25:57;5.80;94.50
60727;DHT22;46577;49.004;12.120;2022-12-11T09:28:23;5.70;94.10
60727;DHT22;46577;49.004;12.120;2022-12-11T09:30:49;5.80;93.40
60727;DHT22;46577;49.004;12.120;2022-12-11T09:33:15;5.90;92.80
60727;DHT22;46577;49.004;12.120;2022-12-11T09:35:41;5.70;92.80
60727;DHT22;46577;49.004;12.120;2022-12-11T09:38:07;5.40;92.90
60727;DHT22;46577;49.004;12.120;2022-12-11T09:40:33;5.10;92.70
60727;DHT22;46577;49.004;12.120;2022-12-11T09:43:18;4.80;93.40
60727;DHT22;46577;49.004;12.120;2022-12-11T09:45:47;3.90;94.50
60727;DHT22;46577;49.004;12.120;2022-12-11T09:48:17;3.70;95.40
60727;DHT22;46577;49.004;12.120;2022-12-11T09:50:47;3.90;95.50
60727;DHT22;46577;49.004;12.120;2022-12-11T09:53:20;3.80;95.60
60727;DHT22;46577;49.004;12.120;2022-12-11T09:58:38;3.30;96.10
60727;DHT22;46577;49.004;12.120;2022-12-11T10:01:19;3.40;97.00
60727;DHT22;46577;49.004;12.120;2022-12-11T10:06:27;3.90;96.70
60727;DHT22;46577;49.004;12.120;2022-12-11T10:11:34;4.10;96.60
60727;DHT22;46577;49.004;12.120;2022-12-11T10:16:51;3.80;96.20
60727;DHT22;46577;49.004;12.120;2022-12-11T10:19:19;3.80;96.80
60727;DHT22;46577;49.004;12.120;2022-12-11T10:21:47;3.90;96.00
60727;DHT22;46577;49.004;12.120;2022-12-11T10:26:58;3.50;96.80
60727;DHT22;46577;49.004;12.120;2022-12-11T10:29:27;3.00;96.80
60727;DHT22;46577;49.004;12.120;2022-12-11T10:31:56;2.80;97.50
60727;DHT22;46577;49.004;12.120;2022-12-11T10:34:35;3.10;97.20
60727;DHT22;46577;49.004;12.120;2022-12-11T10:37:01;3.70;97.30
60727;DHT22;46577;49.004;12.120;2022-12-11T10:39:27;4.50;95.20
60727;DHT22;46577;49.004;12.120;2022-12-11T10:41:54;5.10;93.90
60727;DHT22;46577;49.004;12.120;2022-12-11T10:44:28;5.50;92.30
60727;DHT22;46577;49.004;12.120;2022-12-11T10:47:10;5.80;91.80
60727;DHT22;46577;49.004;12.120;2022-12-11T10:49:37;6.10;91.20
60727;DHT22;46577;49.004;12.120;2022-12-11T10:52:12;6.70;90.80
60727;DHT22;46577;49.004;12.120;2022-12-11T10:54:45;7.30;88.10
60727;DHT22;46577;49.004;12.120;2022-12-11T10:57:13;7.30;84.70
60727;DHT22;46577;49.004;12.120;2022-12-11T11:02:33;7.10;85.00
60727;DHT22;46577;49.004;12.120;2022-12-11T11:05:31;7.10;83.50
60727;DHT22;46577;49.004;12.120;2022-12-11T11:08:22;7.10;80.90
60727;DHT22;46577;49.004;12.120;2022-12-11T11:10:59;6.70;79.00
60727;DHT22;46577;49.004;12.120;2022-12-11T11:13:28;6.50;80.00
60727;DHT22;46577;49.004;12.120;2022-12-11T11:16:06;6.40;80.00
60727;DHT22;46577;49.004;12.120;2022-12-11T11:18:34;6.00;80.70
60727;DHT22;46577;49.004;12.120;2022-12-11T11:21:00;5.70;80.20
60727;DHT22;46577;49.004;12.120;2022-12-11T11:23:26;5.40;82.10
60727;DHT22;46577;49.004;12.120;2022-12-11T11:26:00;4.90;84.10
60727;DHT22;46577;49.004;12.120;2022-12-11T11:28:33;4.60;85.60
60727;DHT22;46577;49.004;12.120;2022-12-11T11:31:10;4.20;87.30
60727;DHT22;46577;49.004;12.120;2022-12-11T11:36:24;3.80;90.00
60727;DHT22;46577;49.004;12.120;2022-12-11T11:41:33;3.10;91.70
60727;DHT22;46577;49.004;12.120;2022-12-11T11:44:05;2.90;91.90
60727;DHT22;46577;49.004;12.120;2022-12-11T11:46:43;2.70;92.60
60727;DHT22;46577;49.004;12.120;2022-12-11T11:54:30;2.40;91.90
60727;DHT22;46577;49.004;12.120;2022-12-11T11:56:58;2.20;92.20
60727;DHT22;46577;49.004;12.120;2022-12-11T12:01:56;1.80;91.90
60727;DHT22;46577;49.004;12.120;2022-12-11T12:04:22;1.40;92.40
60727;DHT22;46577;49.004;12.120;2022-12-11T12:09:53;1.50;93.20
60727;DHT22;46577;49.004;12.120;2022-12-11T12:12:26;1.60;92.10
60727;DHT22;46577;49.004;12.120;2022-12-11T12:17:52;1.60;91.40
60727;DHT22;46577;49.004;12.120;2022-12-11T12:26:09;2.70;87.50
60727;DHT22;46577;49.004;12.120;2022-12-11T12:28:50;2.60;86.30
60727;DHT22;46577;49.004;12.120;2022-12-11T12:37:14;3.40;85.20
60727;DHT22;46577;49.004;12.120;2022-12-11T12:47:41;6.90;72.00
60727;DHT22;46577;49.004;12.120;2022-12-11T12:50:16;7.70;65.80
60727;DHT22;46577;49.004;12.120;2022-12-11T12:52:43;7.80;61.00
60727;DHT22;46577;49.004;12.120;2022-12-11T13:00:42;6.10;63.00
60727;DHT22;46577;49.004;12.120;2022-12-11T13:03:17;5.30;65.20
60727;DHT22;46577;49.004;12.120;2022-12-11T13:06:05;4.50;67.20
60727;DHT22;46577;49.004;12.120;2022-12-11T13:08:46;4.10;69.60
60727;DHT22;46577;49.004;12.120;2022-12-11T13:11:14;3.80;69.10
60727;DHT22;46577;49.004;12.120;2022-12-11T13:13:43;3.70;71.60
60727;DHT22;46577;49.004;12.120;2022-12-11T13:18:46;3.60;71.20
60727;DHT22;46577;49.004;12.120;2022-12-11T13:21:26;3.50;71.40
60727;DHT22;46577;49.004;12.120;2022-12-11T13:23:52;3.20;72.90
60727;DHT22;46577;49.004;12.120;2022-12-11T13:26:32;3.10;74.40
60727;DHT22;46577;49.004;12.120;2022-12-11T13:28:58;2.80;76.80
60727;DHT22;46577;49.004;12.120;2022-12-11T13:31:27;2.70;78.30
60727;DHT22;46577;49.004;12.120;2022-12-11T13:33:55;2.60;80.60
60727;DHT22;46577;49.004;12.120;2022-12-11T13:36:30;2.50;80.70
60727;DHT22;46577;49.004;12.120;2022-12-11T13:39:15;2.50;80.90
60727;DHT22;46577;49.004;12.120;2022-12-11T13:41:45;2.50;81.90
60727;DHT22;46577;49.004;12.120;2022-12-11T13:44:35;2.50;82.90
60727;DHT22;46577;49.004;12.120;2022-12-11T13:47:04;2.50;84.10
60727;DHT22;46577;49.004;12.120;2022-12-11T13:49:36;2.40;84.60
60727;DHT22;46577;49.004;12.120;2022-12-11T13:52:04;2.60;84.70
60727;DHT22;46577;49.004;12.120;2022-12-11T13:54:32;2.60;86.00
60727;DHT22;46577;49.004;12.120;2022-12-11T13:59:40;2.60;86.80
60727;DHT22;46577;49.004;12.120;2022-12-11T14:02:34;2.40;86.70
60727;DHT22;46577;49.004;12.120;2022-12-11T14:05:08;2.30;87.00
60727;DHT22;46577;49.004;12.120;2022-12-11T14:08:03;2.10;90.00
60727;DHT22;46577;49.004;12.120;2022-12-11T14:10:31;2.00;90.20
60727;DHT22;46577;49.004;12.120;2022-12-11T14:13:07;1.90;90.50
60727;DHT22;46577;49.004;12.120;2022-12-11T14:15:43;1.70;91.00
60727;DHT22;46577;49.004;12.120;2022-12-11T14:18:16;1.70;91.60
60727;DHT22;46577;49.004;12.120;2022-12-11T14:20:42;1.60;91.80
60727;DHT22;46577;49.004;12.120;2022-12-11T14:23:18;1.50;92.60
60727;DHT22;46577;49.004;12.120;2022-12-11T14:25:59;1.40;93.00
60727;DHT22;46577;49.004;12.120;2022-12-11T14:28:27;1.40;93.00
60727;DHT22;46577;49.004;12.120;2022-12-11T14:30:56;1.20;93.30
60727;DHT22;46577;49.004;12.120;2022-12-11T14:33:33;0.80;95.30
60727;DHT22;46577;49.004;12.120;2022-12-11T14:35:59;0.80;95.70
60727;DHT22;46577;49.004;12.120;2022-12-11T14:38:34;0.80;95.70
60727;DHT22;46577;49.004;12.120;2022-12-11T14:41:13;0.70;96.20
60727;DHT22;46577;49.004;12.120;2022-12-11T14:43:47;0.80;96.90
60727;DHT22;46577;49.004;12.120;2022-12-11T14:46:18;0.80;96.80
60727;DHT22;46577;49.004;12.120;2022-12-11T14:48:50;0.80;97.00
60727;DHT22;46577;49.004;12.120;2022-12-11T14:51:18;0.80;97.10
60727;DHT22;46577;49.004;12.120;2022-12-11T14:53:47;0.80;97.00
60727;DHT22;46577;49.004;12.120;2022-12-11T14:56:20;0.70;97.50
60727;DHT22;46577;49.004;12.120;2022-12-11T14:58:59;0.60;97.90
60727;DHT22;46577;49.004;12.120;2022-12-11T15:01:29;0.50;97.70
60727;DHT22;46577;49.004;12.120;2022-12-11T15:06:33;0.40;98.40
60727;DHT22;46577;49.004;12.120;2022-12-11T15:09:36;0.30;98.10
60727;DHT22;46577;49.004;12.120;2022-12-11T15:12:16;0.20;98.50
60727;DHT22;46577;49.004;12.120;2022-12-11T15:14:54;0.20;98.40
60727;DHT22;46577;49.004;12.120;2022-12-11T15:17:22;0.30;98.60
60727;DHT22;46577;49.004;12.120;2022-12-11T15:19:50;0.30;98.50
60727;DHT22;46577;49.004;12.120;2022-12-11T15:22:18;0.20;98.50
60727;DHT22;46577;49.004;12.120;2022-12-11T15:24:45;0.30;98.60
60727;DHT22;46577;49.004;12.120;2022-12-11T15:29:48;0.50;98.80
60727;DHT22;46577;49.004;12.120;2022-12-11T15:32:17;0.60;98.70
60727;DHT22;46577;49.004;12.120;2022-12-11T15:34:58;0.50;98.10
60727;DHT22;46577;49.004;12.120;2022-12-11T15:37:29;0.50;97.60
60727;DHT22;46577;49.004;12.120;2022-12-11T15:39:56;0.50;97.80
60727;DHT22;46577;49.004;12.120;2022-12-11T15:42:29;0.60;97.60
60727;DHT22;46577;49.004;12.120;2022-12-11T15:44:56;0.30;97.50
60727;DHT22;46577;49.004;12.120;2022-12-11T15:47:27;0.30;97.50
60727;DHT22;46577;49.004;12.120;2022-12-11T15:49:56;0.30;97.70
60727;DHT22;46577;49.004;12.120;2022-12-11T15:52:22;0.30;97.60
60727;DHT22;46577;49.004;12.120;2022-12-11T15:54:48;0.10;97.80
60727;DHT22;46577;49.004;12.120;2022-12-11T15:57:16;0.20;98.30
60727;DHT22;46577;49.004;12.120;2022-12-11T15:59:44;0.20;98.30
60727;DHT22;46577;49.004;12.120;2022-12-11T16:02:11;0.20;98.30
60727;DHT22;46577;49.004;12.120;2022-12-11T16:04:38;0.20;98.30
60727;DHT22;46577;49.004;12.120;2022-12-11T16:07:04;0.20;98.20
60727;DHT22;46577;49.004;12.120;2022-12-11T16:09:30;0.20;98.40
60727;DHT22;46577;49.004;12.120;2022-12-11T16:11:58;0.20;98.70
60727;DHT22;46577;49.004;12.120;2022-12-11T16:14:24;0.10;99.00
60727;DHT22;46577;49.004;12.120;2022-12-11T16:16:50;0.10;99.20
60727;DHT22;46577;49.004;12.120;2022-12-11T16:19:15;0.20;99.30
60727;DHT22;46577;49.004;12.120;2022-12-11T16:21:41;0.20;99.30
60727;DHT22;46577;49.004;12.120;2022-12-11T16:24:06;0.00;99.60
60727;DHT22;46577;49.004;12.120;2022-12-11T16:26:32;0.20;99.80
60727;DHT22;46577;49.004;12.120;2022-12-11T16:28:58;0.20;99.70
60727;DHT22;46577;49.004;12.120;2022-12-11T16:31:23;0.20;99.80
60727;DHT22;46577;49.004;12.120;2022-12-11T16:33:49;0.20;99.90
60727;DHT22;46577;49.004;12.120;2022-12-11T16:36:16;0.20;99.90
60727;DHT22;46577;49.004;12.120;2022-12-11T16:38:46;0.20;99.90
60727;DHT22;46577;49.004;12.120;2022-12-11T16:41:12;0.20;99.90
60727;DHT22;46577;49.004;12.120;2022-12-11T16:43:38;0.20;99.90
60727;DHT22;46577;49.004;12.120;2022-12-11T16:46:04;0.10;99.90
60727;DHT22;46577;49.004;12.120;2022-12-11T16:48:30;-0.10;99.90
60727;DHT22;46577;49.004;12.120;2022-12-11T16:50:56;-0.10;99.90
60727;DHT22;46577;49.004;12.120;2022-12-11T16:53:22;-0.20;99.90
60727;DHT22;46577;49.004;12.120;2022-12-11T16:55:47;-0.10;99.90
60727;DHT22;46577;49.004;12.120;2022-12-11T16:58:13;-0.20;99.90
60727;DHT22;46577;49.004;12.120;2022-12-11T17:00:45;-0.30;99.90
60727;DHT22;46577;49.004;12.120;2022-12-11T17:03:10;-0.30;99.90
60727;DHT22;46577;49.004;12.120;2022-12-11T17:05:38;-0.30;99.90
60727;DHT22;46577;49.004;12.120;2022-12-11T17:08:04;-0.20;99.90